Time;durP1;ratioP1;P1;durP2;ratioP2;P2;SDS_P1;SDS_P2;PMS_P1;PMS_P2;Temp;Humidity;BMP_temperature;BMP_pressure;BME280_temperature;BME280_humidity;BME280_pressure;Samples;Min_cycle;Max_cycle;Signal;HPM_P1;HPM_P2
2023/05/02 00:00:35;;;;;;;7.50;4.70;;;14.30;99.90;;;;;;5097851;28;20069;-72
2023/05/02 00:03:00;;;;;;;10.05;4.55;;;14.20;99.90;;;;;;5114963;28;20051;-72
2023/05/02 00:05:26;;;;;;;7.03;4.40;;;14.20;99.90;;;;;;5114633;28;20031;-72
2023/05/02 00:07:52;;;;;;;7.57;4.63;;;14.30;99.90;;;;;;5097707;28;20036;-72
2023/05/02 00:10:18;;;;;;;5.75;4.35;;;14.20;99.90;;;;;;5114674;28;20059;-72
2023/05/02 00:12:43;;;;;;;8.63;4.57;;;14.40;99.90;;;;;;5114683;28;20130;-73
2023/05/02 00:15:09;;;;;;;8.35;5.03;;;14.40;99.90;;;;;;5114797;28;20028;-72
2023/05/02 00:17:35;;;;;;;9.02;4.63;;;14.40;99.90;;;;;;5098394;28;20024;-72
2023/05/02 00:20:03;;;;;;;5.95;4.35;;;14.30;99.90;;;;;;5114402;28;20107;-72
2023/05/02 00:22:28;;;;;;;4.88;3.83;;;14.20;99.90;;;;;;5114432;28;20024;-76
2023/05/02 00:24:58;;;;;;;7.93;5.20;;;14.10;99.90;;;;;;5098513;28;20027;-76
2023/05/02 00:27:24;;;;;;;7.72;4.78;;;14.20;99.90;;;;;;5114852;28;20074;-75
2023/05/02 00:29:51;;;;;;;7.63;5.38;;;14.20;99.90;;;;;;5114350;28;20024;-75
2023/05/02 00:32:16;;;;;;;7.55;5.03;;;14.00;99.90;;;;;;5097523;28;20048;-76
2023/05/02 00:34:42;;;;;;;7.88;5.20;;;13.90;99.90;;;;;;5114285;28;20024;-76
2023/05/02 00:37:07;;;;;;;8.68;4.80;;;14.00;99.90;;;;;;5114388;28;20120;-76
2023/05/02 00:39:34;;;;;;;6.93;4.57;;;14.00;99.90;;;;;;5114486;28;20107;-75
2023/05/02 00:42:00;;;;;;;8.48;4.93;;;14.00;99.90;;;;;;5113966;28;20074;-75
2023/05/02 00:44:26;;;;;;;9.38;5.28;;;14.00;99.90;;;;;;5114282;28;20026;-75
2023/05/02 00:46:53;;;;;;;10.50;5.25;;;14.00;99.90;;;;;;5114544;28;20026;-75
2023/05/02 00:49:18;;;;;;;7.57;4.85;;;13.90;99.90;;;;;;5114181;28;20020;-75
2023/05/02 00:51:45;;;;;;;7.60;5.28;;;14.00;99.90;;;;;;5114218;28;20028;-75
2023/05/02 00:54:14;;;;;;;9.35;5.53;;;14.00;99.90;;;;;;5113911;28;20047;-72
2023/05/02 00:56:39;;;;;;;9.48;5.70;;;13.90;99.90;;;;;;5114361;28;20069;-72
2023/05/02 00:59:08;;;;;;;9.50;5.70;;;13.90;99.90;;;;;;5113893;28;20044;-72
2023/05/02 01:01:59;;;;;;;7.60;5.65;;;13.90;99.90;;;;;;5096688;28;20024;-72
2023/05/02 01:04:49;;;;;;;12.23;5.93;;;14.00;99.90;;;;;;5113807;28;20012;-72
2023/05/02 01:07:46;;;;;;;9.40;6.50;;;14.00;99.90;;;;;;5096643;28;20063;-72
2023/05/02 01:10:31;;;;;;;12.07;7.07;;;13.90;99.90;;;;;;5096615;28;20056;-72
2023/05/02 01:13:09;;;;;;;9.93;6.40;;;13.80;99.90;;;;;;5114202;28;20020;-72
2023/05/02 01:15:37;;;;;;;11.57;6.15;;;13.70;99.90;;;;;;5097511;28;20020;-72
2023/05/02 01:18:04;;;;;;;10.88;6.57;;;13.80;99.90;;;;;;5113549;28;20028;-72
2023/05/02 01:20:31;;;;;;;11.48;6.40;;;13.70;99.90;;;;;;5113348;28;20024;-72
2023/05/02 01:23:03;;;;;;;10.25;6.45;;;13.60;99.90;;;;;;5113773;28;20016;-72
2023/05/02 01:25:47;;;;;;;;;;;13.50;99.90;;;;;;5113797;28;20020;-72
2023/05/02 01:28:35;;;;;;;11.48;6.20;;;13.50;99.90;;;;;;5096981;28;19903;-72
2023/05/02 01:31:03;;;;;;;10.38;6.65;;;13.50;99.90;;;;;;5097217;28;20024;-72
2023/05/02 01:33:30;;;;;;;7.75;6.35;;;13.60;99.90;;;;;;5096600;28;20028;-72
2023/05/02 01:35:57;;;;;;;10.98;6.80;;;13.60;99.90;;;;;;5113149;28;20028;-72
2023/05/02 01:38:25;;;;;;;11.35;7.47;;;13.60;99.90;;;;;;5097390;28;20020;-72
2023/05/02 01:40:53;;;;;;;9.77;6.55;;;13.60;99.90;;;;;;5113609;28;20042;-72
2023/05/02 01:43:20;;;;;;;9.45;6.47;;;13.50;99.90;;;;;;5097099;28;20035;-72
2023/05/02 01:45:49;;;;;;;12.73;6.75;;;13.50;99.90;;;;;;5113997;28;20115;-72
2023/05/02 01:48:16;;;;;;;10.68;6.68;;;13.50;99.90;;;;;;5097058;28;20027;-72
2023/05/02 01:50:44;;;;;;;11.50;6.70;;;13.50;99.90;;;;;;5113133;28;20050;-72
2023/05/02 01:53:12;;;;;;;12.88;6.40;;;13.40;99.90;;;;;;5113395;28;20038;-72
2023/05/02 01:55:42;;;;;;;13.32;7.75;;;13.40;99.90;;;;;;5113133;28;20066;-72
2023/05/02 01:58:09;;;;;;;14.05;7.15;;;13.40;99.90;;;;;;5096177;28;20020;-72
2023/05/02 02:00:35;;;;;;;11.68;6.97;;;13.30;99.90;;;;;;5096944;28;20062;-72
2023/05/02 02:03:04;;;;;;;11.85;7.15;;;13.40;99.90;;;;;;5113379;28;20020;-72
2023/05/02 02:05:30;;;;;;;11.77;7.38;;;13.40;99.90;;;;;;5113143;28;20032;-72
2023/05/02 02:07:57;;;;;;;10.77;6.78;;;13.40;99.90;;;;;;5112970;28;20028;-72
2023/05/02 02:10:28;;;;;;;13.52;8.10;;;13.30;99.90;;;;;;5113054;28;20054;-72
2023/05/02 02:13:03;;;;;;;12.07;7.40;;;13.20;99.90;;;;;;5113035;28;20024;-72
2023/05/02 02:15:33;;;;;;;12.73;7.60;;;13.20;99.90;;;;;;5113120;28;20047;-72
2023/05/02 02:18:03;;;;;;;14.55;7.70;;;13.30;99.90;;;;;;5112968;28;20028;-72
2023/05/02 02:20:29;;;;;;;10.45;6.82;;;13.20;99.90;;;;;;5112856;28;20031;-72
2023/05/02 02:22:56;;;;;;;14.98;8.25;;;13.10;99.90;;;;;;5112875;28;20106;-72
2023/05/02 02:25:23;;;;;;;11.75;7.93;;;13.10;99.90;;;;;;5112763;28;20046;-72
2023/05/02 02:27:49;;;;;;;11.73;7.95;;;13.00;99.90;;;;;;5113013;28;20028;-72
2023/05/02 02:30:15;;;;;;;12.20;8.40;;;12.90;99.90;;;;;;5112823;28;20027;-72
2023/05/02 02:32:41;;;;;;;14.15;8.60;;;13.00;99.90;;;;;;5112706;28;20024;-72
2023/05/02 02:35:07;;;;;;;11.95;8.02;;;12.90;99.90;;;;;;5113027;28;20028;-72
2023/05/02 02:37:41;;;;;;;11.85;7.55;;;12.90;99.90;;;;;;5112543;28;20024;-72
2023/05/02 02:40:30;;;;;;;14.52;8.48;;;12.80;99.90;;;;;;5113070;28;20024;-72
2023/05/02 02:43:19;;;;;;;16.40;8.18;;;12.70;99.90;;;;;;5112823;28;20059;-72
2023/05/02 02:46:14;;;;;;;13.07;8.10;;;12.70;99.90;;;;;;5117185;28;20027;-72
2023/05/02 02:48:54;;;;;;;16.55;9.30;;;12.70;99.90;;;;;;5115280;28;20032;-72
2023/05/02 02:51:35;;;;;;;14.25;8.80;;;12.80;99.90;;;;;;5116666;28;20089;-72
2023/05/02 02:54:22;;;;;;;14.60;9.02;;;12.70;99.90;;;;;;5117152;28;20035;-72
2023/05/02 02:56:55;;;;;;;14.15;9.32;;;12.80;99.90;;;;;;5116004;28;20028;-72
2023/05/02 02:59:40;;;;;;;16.45;8.85;;;12.90;99.90;;;;;;5116192;28;20024;-72
2023/05/02 03:02:07;;;;;;;15.15;9.32;;;12.90;99.90;;;;;;5116698;28;20017;-72
2023/05/02 03:04:35;;;;;;;19.27;9.55;;;13.00;99.90;;;;;;5115942;28;20050;-72
2023/05/02 03:07:00;;;;;;;16.42;9.23;;;13.00;99.90;;;;;;5116320;28;20032;-75
2023/05/02 03:09:29;;;;;;;17.60;9.82;;;12.90;99.90;;;;;;5115993;28;20016;-76
2023/05/02 03:11:55;;;;;;;17.70;9.43;;;12.80;99.90;;;;;;5099639;28;20036;-76
2023/05/02 03:14:21;;;;;;;19.52;10.20;;;12.90;99.90;;;;;;5115811;28;20063;-76
2023/05/02 03:16:47;;;;;;;21.67;9.70;;;13.00;99.90;;;;;;5116024;28;20055;-76
2023/05/02 03:19:13;;;;;;;17.90;9.35;;;12.90;99.90;;;;;;5116150;28;20117;-76
2023/05/02 03:21:38;;;;;;;18.60;9.82;;;12.80;99.90;;;;;;5099316;28;20034;-76
2023/05/02 03:24:04;;;;;;;17.95;9.95;;;12.80;99.90;;;;;;5116484;28;20051;-76
2023/05/02 03:26:30;;;;;;;16.45;9.65;;;12.80;99.90;;;;;;5115610;28;20054;-76
2023/05/02 03:28:56;;;;;;;22.35;10.85;;;12.80;99.90;;;;;;5115466;28;20020;-76
2023/05/02 03:31:22;;;;;;;22.08;10.23;;;12.70;99.90;;;;;;5115476;28;20024;-76
2023/05/02 03:33:48;;;;;;;20.95;10.63;;;12.70;99.90;;;;;;5115501;28;20030;-76
2023/05/02 03:36:14;;;;;;;16.80;10.02;;;12.70;99.90;;;;;;5116091;28;20031;-76
2023/05/02 03:38:40;;;;;;;18.17;10.57;;;12.60;99.90;;;;;;5115577;28;20050;-76
2023/05/02 03:41:05;;;;;;;20.95;10.07;;;12.60;99.90;;;;;;5115425;28;20024;-76
2023/05/02 03:43:31;;;;;;;22.08;10.80;;;12.70;99.90;;;;;;5115225;28;20070;-76
2023/05/02 03:45:57;;;;;;;20.08;10.85;;;12.70;99.90;;;;;;5099029;28;20020;-76
2023/05/02 03:48:23;;;;;;;19.42;11.48;;;12.70;99.90;;;;;;5115183;28;20059;-75
2023/05/02 03:50:49;;;;;;;21.45;10.40;;;12.70;99.90;;;;;;5098990;28;20032;-75
2023/05/02 03:53:15;;;;;;;20.27;9.88;;;12.70;99.90;;;;;;5115384;28;20029;-76
2023/05/02 03:55:44;;;;;;;17.60;9.85;;;12.70;99.90;;;;;;5114273;28;20028;-76
2023/05/02 03:58:10;;;;;;;17.00;9.68;;;12.70;99.90;;;;;;5115366;28;20031;-75
2023/05/02 04:00:37;;;;;;;18.75;11.45;;;12.60;99.90;;;;;;5114825;28;20027;-76
2023/05/02 04:03:03;;;;;;;20.80;10.75;;;12.50;99.90;;;;;;5114883;28;20107;-76
2023/05/02 04:05:28;;;;;;;19.98;11.30;;;12.50;99.90;;;;;;5114797;28;20097;-76
2023/05/02 04:07:57;;;;;;;23.17;10.77;;;12.40;99.90;;;;;;5114792;28;20024;-76
2023/05/02 04:10:22;;;;;;;21.38;11.40;;;12.40;99.90;;;;;;5114887;28;20028;-76
2023/05/02 04:12:48;;;;;;;19.92;11.18;;;12.40;99.90;;;;;;5114634;28;20024;-76
2023/05/02 04:15:14;;;;;;;22.73;12.07;;;12.40;99.90;;;;;;5114917;28;20024;-75
2023/05/02 04:17:40;;;;;;;21.42;11.57;;;12.30;99.90;;;;;;5098402;28;20081;-76
2023/05/02 04:20:06;;;;;;;20.50;11.27;;;12.30;99.90;;;;;;5114788;28;20021;-76
2023/05/02 04:22:32;;;;;;;22.67;12.40;;;12.20;99.90;;;;;;5098173;28;20052;-76
2023/05/02 04:24:57;;;;;;;22.88;11.68;;;12.20;99.90;;;;;;5114438;28;20028;-76
2023/05/02 04:27:23;;;;;;;20.15;11.80;;;12.20;99.90;;;;;;5114443;28;20049;-76
2023/05/02 04:29:49;;;;;;;24.73;12.35;;;12.20;99.90;;;;;;5115144;28;20028;-76
2023/05/02 04:32:15;;;;;;;25.38;13.02;;;12.20;99.90;;;;;;5114236;28;20056;-75
2023/05/02 04:34:41;;;;;;;24.23;12.95;;;12.30;99.90;;;;;;5114464;28;20059;-76
2023/05/02 04:37:07;;;;;;;25.02;13.05;;;12.20;99.90;;;;;;5114488;28;20024;-76
2023/05/02 04:39:33;;;;;;;23.33;13.30;;;12.20;99.90;;;;;;5097439;28;20031;-76
2023/05/02 04:41:59;;;;;;;24.20;13.40;;;12.20;99.90;;;;;;5114381;28;20073;-76
2023/05/02 04:44:24;;;;;;;26.55;13.68;;;12.30;99.90;;;;;;5114399;28;20107;-76
2023/05/02 04:46:50;;;;;;;25.00;14.10;;;12.40;99.90;;;;;;5113903;28;20098;-76
2023/05/02 04:49:16;;;;;;;26.52;14.48;;;12.40;99.90;;;;;;5097923;28;20031;-76
2023/05/02 04:51:41;;;;;;;31.35;15.38;;;12.50;99.90;;;;;;5114017;28;20115;-76
2023/05/02 04:54:07;;;;;;;29.02;15.07;;;12.50;99.90;;;;;;5097738;28;20020;-76
2023/05/02 04:56:33;;;;;;;33.30;16.67;;;12.50;99.90;;;;;;5114107;28;20036;-76
2023/05/02 04:58:58;;;;;;;37.92;18.98;;;12.40;99.90;;;;;;5113673;28;20028;-77
2023/05/02 05:01:26;;;;;;;34.50;17.63;;;12.30;99.90;;;;;;5113677;28;20030;-77
2023/05/02 05:03:52;;;;;;;33.90;16.20;;;12.30;99.90;;;;;;5113726;28;20102;-77
2023/05/02 05:06:18;;;;;;;29.38;15.00;;;12.30;99.90;;;;;;5113607;28;20047;-78
2023/05/02 05:08:44;;;;;;;28.33;14.55;;;12.40;99.90;;;;;;5113763;28;20024;-77
2023/05/02 05:11:10;;;;;;;26.48;15.18;;;12.50;99.90;;;;;;5113629;28;20031;-78
2023/05/02 05:13:36;;;;;;;30.67;16.20;;;12.50;99.90;;;;;;5113567;28;20024;-78
2023/05/02 05:16:02;;;;;;;26.38;14.73;;;12.50;99.90;;;;;;5113920;28;20028;-77
2023/05/02 05:18:28;;;;;;;28.63;14.82;;;12.50;99.90;;;;;;5114118;28;20024;-78
2023/05/02 05:20:53;;;;;;;31.75;16.48;;;12.50;99.90;;;;;;5113726;28;20035;-78
2023/05/02 05:23:19;;;;;;;29.05;15.75;;;12.60;99.90;;;;;;5113241;28;20020;-79
2023/05/02 05:25:44;;;;;;;34.33;17.10;;;12.60;99.90;;;;;;5113367;28;20030;-78
2023/05/02 05:28:10;;;;;;;28.95;15.85;;;12.70;99.90;;;;;;5113507;28;20020;-78
2023/05/02 05:30:36;;;;;;;31.60;15.82;;;12.60;99.90;;;;;;5097233;28;20055;-78
2023/05/02 05:33:01;;;;;;;26.75;14.48;;;12.60;99.90;;;;;;5113188;28;20024;-78
2023/05/02 05:35:27;;;;;;;35.55;16.50;;;12.70;99.90;;;;;;5097197;28;20035;-78
2023/05/02 05:37:52;;;;;;;33.20;16.70;;;12.80;99.90;;;;;;5113678;28;20028;-77
2023/05/02 05:40:18;;;;;;;31.23;16.15;;;12.80;99.90;;;;;;5097123;28;20017;-78
2023/05/02 05:42:45;;;;;;;34.85;17.80;;;12.80;99.90;;;;;;5114470;28;20020;-77
2023/05/02 05:45:11;;;;;;;37.05;17.45;;;12.80;99.90;;;;;;5113361;28;20174;-77
2023/05/02 05:47:36;;;;;;;37.30;18.25;;;12.80;99.90;;;;;;5097057;28;20031;-78
2023/05/02 05:50:02;;;;;;;36.85;16.55;;;12.90;99.90;;;;;;5113470;28;20024;-77
2023/05/02 05:52:28;;;;;;;38.63;18.42;;;13.00;99.90;;;;;;5113519;28;20036;-78
2023/05/02 05:54:57;;;;;;;31.58;16.25;;;13.00;99.90;;;;;;5113752;28;20054;-78
2023/05/02 05:57:22;;;;;;;34.40;17.60;;;13.10;99.90;;;;;;5113435;28;20027;-78
2023/05/02 05:59:48;;;;;;;37.90;17.80;;;13.10;99.90;;;;;;5113188;28;20020;-78
2023/05/02 06:02:15;;;;;;;34.17;16.52;;;13.10;99.90;;;;;;5096199;28;20089;-78
2023/05/02 06:04:40;;;;;;;34.00;17.10;;;13.20;99.90;;;;;;5097149;28;20016;-78
2023/05/02 06:07:06;;;;;;;37.00;17.75;;;13.20;99.90;;;;;;5113551;28;20030;-78
2023/05/02 06:09:32;;;;;;;34.25;17.50;;;13.10;99.90;;;;;;5113016;28;20024;-78
2023/05/02 06:11:57;;;;;;;33.60;17.38;;;13.20;99.90;;;;;;5096717;28;20091;-78
2023/05/02 06:14:23;;;;;;;32.92;16.58;;;13.20;99.90;;;;;;5096697;28;20026;-77
2023/05/02 06:16:48;;;;;;;34.72;16.58;;;13.40;99.90;;;;;;5113859;28;20024;-78
2023/05/02 06:19:14;;;;;;;33.22;16.52;;;13.40;99.90;;;;;;5114734;28;20054;-78
2023/05/02 06:21:40;;;;;;;35.88;16.13;;;13.60;99.90;;;;;;5117011;28;20069;-78
2023/05/02 06:24:05;;;;;;;32.92;16.45;;;13.60;99.90;;;;;;5116791;28;20044;-78
2023/05/02 06:26:31;;;;;;;35.92;17.17;;;13.50;99.90;;;;;;5116902;28;20176;-78
2023/05/02 06:28:57;;;;;;;34.83;17.15;;;13.30;99.90;;;;;;5099684;28;20034;-78
2023/05/02 06:31:22;;;;;;;30.92;16.30;;;13.30;99.90;;;;;;5116853;28;20028;-78
2023/05/02 06:33:48;;;;;;;29.98;15.68;;;13.30;99.90;;;;;;5100507;28;20024;-78
2023/05/02 06:36:14;;;;;;;33.17;15.18;;;13.50;99.90;;;;;;5100422;28;20032;-78
2023/05/02 06:38:39;;;;;;;30.75;14.48;;;13.40;99.90;;;;;;5100307;28;20028;-78
2023/05/02 06:41:05;;;;;;;32.70;14.80;;;13.60;99.90;;;;;;5099745;28;20103;-78
2023/05/02 06:43:31;;;;;;;35.15;16.40;;;13.70;99.90;;;;;;5100275;28;20057;-78
2023/05/02 06:45:57;;;;;;;30.38;15.00;;;13.60;99.90;;;;;;5117429;28;20020;-78
2023/05/02 06:48:23;;;;;;;33.15;15.65;;;13.60;99.90;;;;;;5100104;28;20035;-78
2023/05/02 06:50:51;;;;;;;31.10;14.38;;;13.60;99.90;;;;;;5100182;28;20028;-78
2023/05/02 06:53:16;;;;;;;26.05;14.27;;;13.60;99.90;;;;;;5116374;28;20024;-78
2023/05/02 06:55:44;;;;;;;30.90;14.50;;;13.50;99.90;;;;;;5116928;28;20096;-78
2023/05/02 06:58:10;;;;;;;31.33;14.85;;;13.50;99.90;;;;;;5116581;28;20024;-78
2023/05/02 07:00:35;;;;;;;26.88;13.68;;;13.50;99.90;;;;;;5116312;28;20031;-78
2023/05/02 07:03:01;;;;;;;28.15;13.35;;;13.60;99.90;;;;;;5099054;28;20028;-77
2023/05/02 07:05:28;;;;;;;25.27;13.45;;;13.70;99.90;;;;;;5116087;28;20084;-78
2023/05/02 07:07:53;;;;;;;26.75;12.23;;;13.60;99.90;;;;;;5116034;28;20028;-78
2023/05/02 07:10:19;;;;;;;23.27;10.95;;;13.70;99.90;;;;;;5115861;28;20042;-78
2023/05/02 07:12:44;;;;;;;21.15;9.95;;;13.60;99.90;;;;;;5116670;28;20024;-77
2023/05/02 07:15:10;;;;;;;18.33;9.60;;;13.70;99.90;;;;;;5115962;28;20024;-78
2023/05/02 07:17:35;;;;;;;21.50;9.13;;;13.60;99.90;;;;;;5115601;28;20024;-78
2023/05/02 07:20:01;;;;;;;22.50;10.48;;;13.70;99.90;;;;;;5116683;28;20133;-77
2023/05/02 07:22:26;;;;;;;23.73;10.65;;;13.70;99.90;;;;;;5115638;28;20022;-78
2023/05/02 07:24:57;;;;;;;24.80;12.13;;;13.80;99.90;;;;;;5099809;28;20020;-78
2023/05/02 07:27:23;;;;;;;20.53;10.80;;;13.90;99.90;;;;;;5116196;28;20135;-78
2023/05/02 07:29:48;;;;;;;21.98;11.45;;;14.00;99.90;;;;;;5115392;28;20317;-78
2023/05/02 07:32:14;;;;;;;26.40;11.90;;;14.00;99.90;;;;;;5115119;28;20024;-77
2023/05/02 07:34:40;;;;;;;26.17;11.85;;;14.00;99.90;;;;;;5115581;28;20016;-78
2023/05/02 07:37:05;;;;;;;24.65;11.77;;;14.00;99.90;;;;;;5115433;28;20073;-78
2023/05/02 07:39:32;;;;;;;24.00;11.77;;;14.00;99.90;;;;;;5115356;28;20142;-79
2023/05/02 07:41:58;;;;;;;25.70;11.95;;;14.00;99.90;;;;;;5115340;28;20028;-79
2023/05/02 07:44:23;;;;;;;25.65;12.60;;;14.10;99.90;;;;;;5115232;28;20032;-78
2023/05/02 07:46:49;;;;;;;25.52;11.93;;;14.30;99.90;;;;;;5115519;28;20112;-78
2023/05/02 07:49:15;;;;;;;24.00;12.10;;;14.50;99.90;;;;;;5115310;28;20020;-78
2023/05/02 07:51:41;;;;;;;26.40;12.98;;;14.60;99.90;;;;;;5115020;28;20032;-78
2023/05/02 07:54:17;;;;;;;24.13;11.88;;;14.70;99.90;;;;;;5115545;28;20063;-77
2023/05/02 07:56:43;;;;;;;22.88;11.23;;;14.70;99.90;;;;;;5115092;28;20047;-78
2023/05/02 07:59:09;;;;;;;27.60;12.85;;;14.60;99.90;;;;;;5115508;28;20024;-76
2023/05/02 08:01:35;;;;;;;27.30;13.15;;;14.70;99.90;;;;;;5114854;28;20020;-76
2023/05/02 08:04:00;;;;;;;24.77;12.05;;;14.60;99.90;;;;;;5114784;28;20020;-77
2023/05/02 08:06:27;;;;;;;23.80;12.13;;;14.50;99.90;;;;;;5115218;28;20096;-76
2023/05/02 08:08:53;;;;;;;26.10;11.98;;;14.50;99.90;;;;;;5098672;28;20098;-77
2023/05/02 08:11:20;;;;;;;26.45;11.60;;;14.40;99.90;;;;;;5115383;28;20032;-76
2023/05/02 08:13:46;;;;;;;25.17;12.25;;;14.40;99.90;;;;;;5114896;28;20052;-76
2023/05/02 08:16:12;;;;;;;27.88;12.27;;;14.50;99.90;;;;;;5114685;28;20031;-76
2023/05/02 08:18:38;;;;;;;24.50;11.55;;;14.40;99.90;;;;;;5098656;28;20016;-78
2023/05/02 08:21:04;;;;;;;25.02;11.82;;;14.40;99.90;;;;;;5098346;28;20042;-76
2023/05/02 08:23:30;;;;;;;24.33;11.48;;;14.40;99.90;;;;;;5115268;28;20069;-76
2023/05/02 08:25:55;;;;;;;21.88;10.70;;;14.50;99.90;;;;;;5114689;28;20099;-80
2023/05/02 08:28:21;;;;;;;19.25;11.00;;;14.50;99.90;;;;;;5098834;28;20154;-79
2023/05/02 08:30:47;;;;;;;22.00;11.35;;;14.50;99.90;;;;;;5114541;28;20066;-78
2023/05/02 08:33:13;;;;;;;20.88;10.43;;;14.50;99.90;;;;;;5114713;28;20039;-79
2023/05/02 08:35:39;;;;;;;25.30;11.18;;;14.50;99.90;;;;;;5115145;28;20016;-80
2023/05/02 08:38:05;;;;;;;20.20;9.50;;;14.60;99.90;;;;;;5114089;28;20028;-79
2023/05/02 08:40:34;;;;;;;19.63;9.90;;;14.60;99.90;;;;;;5097997;28;20111;-78
2023/05/02 08:43:01;;;;;;;17.48;9.63;;;14.80;99.90;;;;;;5098078;28;20095;-79
2023/05/02 08:45:37;;;;;;;21.10;10.27;;;14.60;99.90;;;;;;5097843;28;20030;-79
2023/05/02 08:48:12;;;;;;;20.52;10.40;;;14.60;99.90;;;;;;5114737;28;20034;-79
2023/05/02 08:50:38;;;;;;;21.83;8.95;;;14.50;99.90;;;;;;5114472;28;20047;-79
2023/05/02 08:53:08;;;;;;;22.42;9.65;;;14.40;99.90;;;;;;5113968;28;20054;-79
2023/05/02 08:55:38;;;;;;;19.50;8.90;;;14.60;99.90;;;;;;5114006;28;20027;-79
2023/05/02 08:58:04;;;;;;;18.77;9.20;;;14.70;99.90;;;;;;5114261;28;20066;-79
2023/05/02 09:00:31;;;;;;;20.42;9.05;;;15.00;99.90;;;;;;5096867;28;20047;-77
2023/05/02 09:03:13;;;;;;;17.85;8.55;;;15.20;99.90;;;;;;5113786;28;20016;-77
2023/05/02 09:05:41;;;;;;;15.75;7.55;;;15.50;99.90;;;;;;5097956;28;20020;-77
2023/05/02 09:08:08;;;;;;;14.60;7.57;;;15.50;99.90;;;;;;5114438;28;20081;-77
2023/05/02 09:10:35;;;;;;;16.80;7.93;;;15.60;99.90;;;;;;5113562;28;20028;-77
2023/05/02 09:13:27;;;;;;;12.80;7.10;;;15.60;99.90;;;;;;5113631;28;20024;-77
2023/05/02 09:16:04;;;;;;;10.15;5.75;;;15.90;99.90;;;;;;5113508;28;20115;-77
2023/05/02 09:18:35;;;;;;;9.40;5.72;;;16.00;99.90;;;;;;5114375;28;20028;-77
2023/05/02 09:21:05;;;;;;;13.93;6.85;;;15.90;99.90;;;;;;5114204;28;20089;-77
2023/05/02 09:23:38;;;;;;;13.02;5.13;;;15.80;99.90;;;;;;5097499;28;20073;-77
2023/05/02 09:26:11;;;;;;;14.50;5.60;;;15.60;99.90;;;;;;5113331;28;20107;-78
2023/05/02 09:28:39;;;;;;;9.38;5.03;;;15.60;99.90;;;;;;5096480;28;20020;-77
2023/05/02 09:31:11;;;;;;;7.15;4.10;;;15.90;99.90;;;;;;5113955;28;20024;-77
2023/05/02 09:33:38;;;;;;;6.18;2.63;;;16.10;99.90;;;;;;5097240;28;20028;-76
2023/05/02 09:36:06;;;;;;;5.95;3.53;;;16.10;99.90;;;;;;5097208;28;20039;-76
2023/05/02 09:38:31;;;;;;;6.07;2.80;;;16.30;99.90;;;;;;5113265;28;20051;-76
2023/05/02 09:40:57;;;;;;;7.82;2.95;;;16.40;99.90;;;;;;5113595;28;20020;-76
2023/05/02 09:43:23;;;;;;;5.22;2.58;;;16.60;99.90;;;;;;5113257;28;20028;-76
2023/05/02 09:45:59;;;;;;;3.53;2.13;;;16.70;99.90;;;;;;5097064;28;20023;-76
2023/05/02 09:48:29;;;;;;;3.88;2.30;;;16.20;99.90;;;;;;5114378;28;20024;-76
2023/05/02 09:50:56;;;;;;;4.43;2.50;;;16.10;99.90;;;;;;5113243;28;20036;-76
2023/05/02 09:53:26;;;;;;;3.03;1.95;;;16.00;99.90;;;;;;5097805;28;20028;-76
2023/05/02 09:56:00;;;;;;;4.63;2.33;;;15.90;99.90;;;;;;5117358;28;20024;-76
2023/05/02 09:58:25;;;;;;;4.60;2.53;;;15.70;99.90;;;;;;5101445;28;20024;-76
2023/05/02 10:00:51;;;;;;;10.32;2.53;;;15.90;99.90;;;;;;5101401;28;20073;-77
2023/05/02 10:03:17;;;;;;;6.93;3.50;;;16.10;99.90;;;;;;5117257;28;20016;-76
2023/05/02 10:05:45;;;;;;;6.25;3.20;;;16.60;99.90;;;;;;5117635;28;20024;-76
2023/05/02 10:08:12;;;;;;;5.07;2.30;;;16.70;99.90;;;;;;5117231;28;20033;-76
2023/05/02 10:10:39;;;;;;;4.55;2.22;;;17.00;99.90;;;;;;5100965;28;20020;-76
2023/05/02 10:13:08;;;;;;;2.42;1.60;;;17.20;99.90;;;;;;5101123;28;20020;-77
2023/05/02 10:15:42;;;;;;;2.33;1.35;;;17.10;99.90;;;;;;5117250;28;20032;-76
2023/05/02 10:18:13;;;;;;;3.40;1.13;;;16.80;99.90;;;;;;5117873;28;20027;-76
2023/05/02 10:20:43;;;;;;;1.73;1.00;;;16.60;99.90;;;;;;5116904;28;20020;-76
2023/05/02 10:23:09;;;;;;;0.90;0.70;;;16.50;99.90;;;;;;5116907;28;20035;-75
2023/05/02 10:25:35;;;;;;;0.90;0.70;;;16.40;99.90;;;;;;5116905;28;20031;-77
2023/05/02 10:28:02;;;;;;;0.98;0.77;;;16.20;99.90;;;;;;5116849;28;20024;-77
2023/05/02 10:30:29;;;;;;;1.42;0.60;;;16.20;99.90;;;;;;5116724;28;20028;-77
2023/05/02 10:32:58;;;;;;;0.65;0.65;;;16.30;99.90;;;;;;5116591;28;20020;-77
2023/05/02 10:35:25;;;;;;;1.40;0.80;;;16.70;99.90;;;;;;5117655;28;20074;-77
2023/05/02 10:37:52;;;;;;;3.35;0.60;;;16.80;99.90;;;;;;5116707;28;20093;-77
2023/05/02 10:40:18;;;;;;;2.17;0.70;;;16.90;99.90;;;;;;5116482;28;20020;-77
2023/05/02 10:42:46;;;;;;;0.70;0.50;;;17.40;99.90;;;;;;5100742;28;20028;-76
2023/05/02 10:45:28;;;;;;;0.65;0.50;;;17.90;99.90;;;;;;5116456;28;20028;-76
2023/05/02 10:48:17;;;;;;;0.45;0.45;;;18.20;99.90;;;;;;5099517;28;20144;-76
2023/05/02 10:50:51;;;;;;;3.13;0.52;;;18.60;99.90;;;;;;5116312;28;20035;-77
2023/05/02 10:53:30;;;;;;;0.93;0.68;;;19.10;99.90;;;;;;5116561;28;20024;-77
2023/05/02 10:56:20;;;;;;;0.63;0.50;;;19.70;99.90;;;;;;5117025;28;20107;-75
2023/05/02 10:58:50;;;;;;;0.70;0.70;;;20.10;99.90;;;;;;5116161;28;20024;-75
2023/05/02 11:01:25;;;;;;;0.63;0.52;;;20.40;99.90;;;;;;5116032;28;20016;-76
2023/05/02 11:03:57;;;;;;;2.25;0.80;;;19.80;99.90;;;;;;5099995;28;20019;-74
2023/05/02 11:06:23;;;;;;;0.60;0.60;;;19.30;99.90;;;;;;5115975;28;20024;-74
2023/05/02 11:08:49;;;;;;;2.05;0.77;;;19.00;99.90;;;;;;5116889;28;20064;-73
2023/05/02 11:11:37;;;;;;;1.08;0.80;;;18.80;99.90;;;;;;5116894;28;20024;-73
2023/05/02 11:14:03;;;;;;;2.15;0.93;;;18.50;99.90;;;;;;5116310;28;20028;-73
2023/05/02 11:17:00;;;;;;;2.25;1.00;;;18.50;99.90;;;;;;5116225;28;20030;-73
2023/05/02 11:19:27;;;;;;;2.83;1.27;;;18.30;99.90;;;;;;5098673;28;20020;-74
2023/05/02 11:22:13;;;;;;;1.38;1.10;;;18.10;99.90;;;;;;5116051;28;20031;-73
2023/05/02 11:24:40;;;;;;;1.85;1.27;;;17.90;99.90;;;;;;5099288;28;20024;-73
2023/05/02 11:27:37;;;;;;;1.50;0.98;;;17.80;99.90;;;;;;5115455;28;20020;-73
2023/05/02 11:30:07;;;;;;;1.73;1.38;;;17.80;99.90;;;;;;5099424;28;20020;-74
2023/05/02 11:32:47;;;;;;;1.73;1.23;;;17.80;99.90;;;;;;5115474;28;20115;-73
2023/05/02 11:35:20;;;;;;;1.08;0.90;;;17.60;99.90;;;;;;5098769;28;20266;-73
2023/05/02 11:38:03;;;;;;;2.13;1.20;;;17.50;99.90;;;;;;5099342;28;20024;-73
2023/05/02 11:40:29;;;;;;;2.28;1.50;;;17.40;99.90;;;;;;5099309;28;20024;-73
2023/05/02 11:42:56;;;;;;;3.10;1.10;;;17.30;99.90;;;;;;5116037;28;20091;-74
2023/05/02 11:45:43;;;;;;;1.85;0.65;;;17.30;99.90;;;;;;5116166;28;20032;-74
2023/05/02 11:48:15;;;;;;;0.93;0.73;;;17.50;99.90;;;;;;5115654;28;20039;-73
2023/05/02 11:50:48;;;;;;;1.00;0.70;;;17.70;99.90;;;;;;5115442;28;20064;-72
2023/05/02 11:53:16;;;;;;;1.17;0.80;;;18.60;99.90;;;;;;5115238;28;20024;-72
2023/05/02 11:55:47;;;;;;;0.60;0.60;;;19.40;99.90;;;;;;5115501;28;20105;-72
2023/05/02 11:58:17;;;;;;;1.17;0.68;;;20.00;99.90;;;;;;5115680;28;20031;-72
2023/05/02 12:00:47;;;;;;;2.50;0.80;;;20.80;99.90;;;;;;5114987;28;20048;-72
2023/05/02 12:03:22;;;;;;;0.55;0.55;;;20.90;99.90;;;;;;5114961;28;20027;-72
2023/05/02 12:05:48;;;;;;;3.47;0.60;;;21.00;99.90;;;;;;5098729;28;20016;-72
2023/05/02 12:08:22;;;;;;;0.70;0.50;;;21.20;99.90;;;;;;5114902;28;20028;-72
2023/05/02 12:10:50;;;;;;;0.90;0.80;;;21.10;99.90;;;;;;5114789;28;20028;-72
2023/05/02 12:13:16;;;;;;;0.85;0.80;;;21.40;99.90;;;;;;5114987;28;20020;-72
2023/05/02 12:15:41;;;;;;;1.38;0.85;;;21.10;99.90;;;;;;5114749;28;20020;-73
2023/05/02 12:18:07;;;;;;;2.25;0.80;;;20.40;99.90;;;;;;5114060;28;20030;-72
2023/05/02 12:20:33;;;;;;;1.42;0.80;;;20.10;99.90;;;;;;5098529;28;20026;-71
2023/05/02 12:22:59;;;;;;;1.75;1.23;;;19.70;99.90;;;;;;5097407;28;20020;-72
2023/05/02 12:25:24;;;;;;;1.58;1.33;;;19.30;99.90;;;;;;5114476;28;20016;-72
2023/05/02 12:28:01;;;;;;;1.48;1.08;;;19.00;99.90;;;;;;5098471;28;20028;-73
2023/05/02 12:30:28;;;;;;;2.08;1.23;;;18.80;99.90;;;;;;5098251;28;20107;-73
2023/05/02 12:32:58;;;;;;;1.63;1.35;;;18.70;99.90;;;;;;5114730;28;20028;-73
2023/05/02 12:35:24;;;;;;;1.98;1.20;;;18.60;99.90;;;;;;5114340;28;20055;-73
2023/05/02 12:37:49;;;;;;;1.45;1.13;;;18.60;99.90;;;;;;5114140;28;20058;-72
2023/05/02 12:40:16;;;;;;;1.67;0.98;;;18.90;99.90;;;;;;5114725;28;20016;-73
2023/05/02 12:42:42;;;;;;;1.23;0.98;;;18.80;99.90;;;;;;5114386;28;20111;-73